sensor_id;sensor_type;location;lat;lon;timestamp;P1;durP1;ratioP1;P2;durP2;ratioP2
8397;SDS011;4236;54.504;9.588;2023-09-30T00:01:27;66.40;;;62.20;;
8397;SDS011;4236;54.504;9.588;2023-09-30T00:03:57;62.30;;;58.83;;
8397;SDS011;4236;54.504;9.588;2023-09-30T00:06:25;67.43;;;63.63;;
8397;SDS011;4236;54.504;9.588;2023-09-30T00:08:52;67.13;;;63.40;;
8397;SDS011;4236;54.504;9.588;2023-09-30T00:11:20;69.53;;;65.90;;
8397;SDS011;4236;54.504;9.588;2023-09-30T00:13:48;64.10;;;60.40;;
8397;SDS011;4236;54.504;9.588;2023-09-30T00:16:16;67.63;;;64.27;;
8397;SDS011;4236;54.504;9.588;2023-09-30T00:18:44;68.80;;;65.33;;
8397;SDS011;4236;54.504;9.588;2023-09-30T00:21:14;69.33;;;65.00;;
8397;SDS011;4236;54.504;9.588;2023-09-30T00:23:42;65.63;;;61.50;;
8397;SDS011;4236;54.504;9.588;2023-09-30T00:26:09;71.83;;;67.87;;
8397;SDS011;4236;54.504;9.588;2023-09-30T00:28:37;75.13;;;70.67;;
8397;SDS011;4236;54.504;9.588;2023-09-30T00:31:06;77.90;;;74.23;;
8397;SDS011;4236;54.504;9.588;2023-09-30T00:33:36;84.37;;;80.17;;
8397;SDS011;4236;54.504;9.588;2023-09-30T00:36:05;81.50;;;78.10;;
8397;SDS011;4236;54.504;9.588;2023-09-30T00:38:35;87.03;;;82.63;;
8397;SDS011;4236;54.504;9.588;2023-09-30T00:41:03;91.43;;;87.63;;
8397;SDS011;4236;54.504;9.588;2023-09-30T00:43:31;89.77;;;85.10;;
8397;SDS011;4236;54.504;9.588;2023-09-30T00:46:01;83.87;;;79.70;;
8397;SDS011;4236;54.504;9.588;2023-09-30T00:48:33;82.50;;;78.73;;
8397;SDS011;4236;54.504;9.588;2023-09-30T00:51:01;86.73;;;82.33;;
8397;SDS011;4236;54.504;9.588;2023-09-30T00:53:30;86.93;;;82.80;;
8397;SDS011;4236;54.504;9.588;2023-09-30T00:55:59;86.67;;;82.43;;
8397;SDS011;4236;54.504;9.588;2023-09-30T00:58:28;83.43;;;79.53;;
8397;SDS011;4236;54.504;9.588;2023-09-30T01:00:57;84.67;;;80.87;;
8397;SDS011;4236;54.504;9.588;2023-09-30T01:03:26;82.33;;;78.83;;
8397;SDS011;4236;54.504;9.588;2023-09-30T01:05:54;85.33;;;81.43;;
8397;SDS011;4236;54.504;9.588;2023-09-30T01:08:21;89.10;;;84.20;;
8397;SDS011;4236;54.504;9.588;2023-09-30T01:10:49;84.30;;;80.07;;
8397;SDS011;4236;54.504;9.588;2023-09-30T01:13:19;82.20;;;78.60;;
8397;SDS011;4236;54.504;9.588;2023-09-30T01:15:47;84.43;;;80.80;;
8397;SDS011;4236;54.504;9.588;2023-09-30T01:18:14;88.00;;;84.00;;
8397;SDS011;4236;54.504;9.588;2023-09-30T01:20:42;89.07;;;84.27;;
8397;SDS011;4236;54.504;9.588;2023-09-30T01:23:11;89.33;;;85.00;;
8397;SDS011;4236;54.504;9.588;2023-09-30T01:25:39;85.87;;;81.90;;
8397;SDS011;4236;54.504;9.588;2023-09-30T01:28:08;86.27;;;82.83;;
8397;SDS011;4236;54.504;9.588;2023-09-30T01:30:36;91.67;;;87.97;;
8397;SDS011;4236;54.504;9.588;2023-09-30T01:33:05;85.83;;;81.43;;
8397;SDS011;4236;54.504;9.588;2023-09-30T01:35:34;87.97;;;84.10;;
8397;SDS011;4236;54.504;9.588;2023-09-30T01:38:01;87.90;;;83.57;;
8397;SDS011;4236;54.504;9.588;2023-09-30T01:40:31;86.53;;;82.40;;
8397;SDS011;4236;54.504;9.588;2023-09-30T01:42:58;87.70;;;83.63;;
8397;SDS011;4236;54.504;9.588;2023-09-30T01:45:27;88.20;;;84.67;;
8397;SDS011;4236;54.504;9.588;2023-09-30T01:47:55;90.13;;;84.73;;
8397;SDS011;4236;54.504;9.588;2023-09-30T01:50:22;87.40;;;83.43;;
8397;SDS011;4236;54.504;9.588;2023-09-30T01:52:50;89.90;;;85.20;;
8397;SDS011;4236;54.504;9.588;2023-09-30T01:55:17;89.37;;;85.13;;
8397;SDS011;4236;54.504;9.588;2023-09-30T01:57:47;88.73;;;84.83;;
8397;SDS011;4236;54.504;9.588;2023-09-30T02:00:14;90.80;;;86.30;;
8397;SDS011;4236;54.504;9.588;2023-09-30T02:02:43;89.40;;;85.20;;
8397;SDS011;4236;54.504;9.588;2023-09-30T02:05:11;95.50;;;90.73;;
8397;SDS011;4236;54.504;9.588;2023-09-30T02:07:39;93.83;;;90.20;;
8397;SDS011;4236;54.504;9.588;2023-09-30T02:10:07;93.77;;;89.33;;
8397;SDS011;4236;54.504;9.588;2023-09-30T02:12:36;97.87;;;93.70;;
8397;SDS011;4236;54.504;9.588;2023-09-30T02:15:06;97.17;;;92.80;;
8397;SDS011;4236;54.504;9.588;2023-09-30T02:17:34;99.03;;;94.33;;
8397;SDS011;4236;54.504;9.588;2023-09-30T02:20:02;103.47;;;99.10;;
8397;SDS011;4236;54.504;9.588;2023-09-30T02:22:33;105.13;;;99.73;;
8397;SDS011;4236;54.504;9.588;2023-09-30T02:25:02;101.00;;;96.60;;
8397;SDS011;4236;54.504;9.588;2023-09-30T02:27:33;99.90;;;95.00;;
8397;SDS011;4236;54.504;9.588;2023-09-30T02:30:01;97.53;;;93.00;;
8397;SDS011;4236;54.504;9.588;2023-09-30T02:32:30;97.07;;;92.67;;
8397;SDS011;4236;54.504;9.588;2023-09-30T02:34:59;98.73;;;93.73;;
8397;SDS011;4236;54.504;9.588;2023-09-30T02:37:27;94.43;;;89.13;;
8397;SDS011;4236;54.504;9.588;2023-09-30T02:39:55;90.43;;;86.33;;
8397;SDS011;4236;54.504;9.588;2023-09-30T02:42:24;93.57;;;88.80;;
8397;SDS011;4236;54.504;9.588;2023-09-30T02:44:51;87.37;;;83.50;;
8397;SDS011;4236;54.504;9.588;2023-09-30T02:47:19;91.60;;;87.50;;
8397;SDS011;4236;54.504;9.588;2023-09-30T02:49:48;94.80;;;90.60;;
8397;SDS011;4236;54.504;9.588;2023-09-30T02:52:16;92.03;;;88.10;;
8397;SDS011;4236;54.504;9.588;2023-09-30T02:54:44;92.83;;;88.13;;
8397;SDS011;4236;54.504;9.588;2023-09-30T02:57:11;101.93;;;96.20;;
8397;SDS011;4236;54.504;9.588;2023-09-30T02:59:39;95.33;;;91.40;;
8397;SDS011;4236;54.504;9.588;2023-09-30T03:02:07;100.13;;;95.53;;
8397;SDS011;4236;54.504;9.588;2023-09-30T03:04:35;106.37;;;100.80;;
8397;SDS011;4236;54.504;9.588;2023-09-30T03:07:04;103.27;;;99.27;;
8397;SDS011;4236;54.504;9.588;2023-09-30T03:09:31;98.33;;;93.87;;
8397;SDS011;4236;54.504;9.588;2023-09-30T03:11:59;101.17;;;96.17;;
8397;SDS011;4236;54.504;9.588;2023-09-30T03:14:27;97.80;;;93.17;;
8397;SDS011;4236;54.504;9.588;2023-09-30T03:16:57;102.00;;;97.90;;
8397;SDS011;4236;54.504;9.588;2023-09-30T03:19:25;100.10;;;96.30;;
8397;SDS011;4236;54.504;9.588;2023-09-30T03:21:52;108.73;;;104.00;;
8397;SDS011;4236;54.504;9.588;2023-09-30T03:24:21;113.73;;;108.90;;
8397;SDS011;4236;54.504;9.588;2023-09-30T03:26:49;106.17;;;101.53;;
8397;SDS011;4236;54.504;9.588;2023-09-30T03:29:18;101.37;;;97.07;;
8397;SDS011;4236;54.504;9.588;2023-09-30T03:31:45;101.30;;;96.97;;
8397;SDS011;4236;54.504;9.588;2023-09-30T03:34:13;106.93;;;102.57;;
8397;SDS011;4236;54.504;9.588;2023-09-30T03:36:42;113.07;;;108.43;;
8397;SDS011;4236;54.504;9.588;2023-09-30T03:39:10;113.40;;;107.90;;
8397;SDS011;4236;54.504;9.588;2023-09-30T03:41:42;114.27;;;109.17;;
8397;SDS011;4236;54.504;9.588;2023-09-30T03:44:10;103.07;;;98.93;;
8397;SDS011;4236;54.504;9.588;2023-09-30T03:46:38;113.03;;;106.83;;
8397;SDS011;4236;54.504;9.588;2023-09-30T03:49:06;104.33;;;99.83;;
8397;SDS011;4236;54.504;9.588;2023-09-30T03:51:34;104.83;;;100.37;;
8397;SDS011;4236;54.504;9.588;2023-09-30T03:54:03;105.00;;;101.00;;
8397;SDS011;4236;54.504;9.588;2023-09-30T03:56:33;108.67;;;104.20;;
8397;SDS011;4236;54.504;9.588;2023-09-30T03:59:02;106.97;;;102.20;;
8397;SDS011;4236;54.504;9.588;2023-09-30T04:01:30;105.83;;;101.33;;
8397;SDS011;4236;54.504;9.588;2023-09-30T04:03:58;107.57;;;102.53;;
8397;SDS011;4236;54.504;9.588;2023-09-30T04:06:27;97.60;;;93.80;;
8397;SDS011;4236;54.504;9.588;2023-09-30T04:08:55;105.63;;;100.73;;
8397;SDS011;4236;54.504;9.588;2023-09-30T04:11:25;102.10;;;97.60;;
8397;SDS011;4236;54.504;9.588;2023-09-30T04:13:53;104.00;;;99.30;;
8397;SDS011;4236;54.504;9.588;2023-09-30T04:16:23;103.83;;;99.27;;
8397;SDS011;4236;54.504;9.588;2023-09-30T04:18:55;105.87;;;101.10;;
8397;SDS011;4236;54.504;9.588;2023-09-30T04:21:23;110.70;;;106.27;;
8397;SDS011;4236;54.504;9.588;2023-09-30T04:23:50;110.47;;;106.10;;
8397;SDS011;4236;54.504;9.588;2023-09-30T04:26:18;113.20;;;107.83;;
8397;SDS011;4236;54.504;9.588;2023-09-30T04:28:46;118.93;;;114.03;;
8397;SDS011;4236;54.504;9.588;2023-09-30T04:31:13;119.50;;;115.13;;
8397;SDS011;4236;54.504;9.588;2023-09-30T04:33:43;115.20;;;110.50;;
8397;SDS011;4236;54.504;9.588;2023-09-30T04:36:11;119.23;;;113.93;;
8397;SDS011;4236;54.504;9.588;2023-09-30T04:38:39;111.47;;;106.80;;
8397;SDS011;4236;54.504;9.588;2023-09-30T04:41:07;114.70;;;109.83;;
8397;SDS011;4236;54.504;9.588;2023-09-30T04:43:35;110.20;;;105.80;;
8397;SDS011;4236;54.504;9.588;2023-09-30T04:46:04;113.40;;;108.17;;
8397;SDS011;4236;54.504;9.588;2023-09-30T04:48:33;113.43;;;108.90;;
8397;SDS011;4236;54.504;9.588;2023-09-30T04:51:05;115.77;;;110.53;;
8397;SDS011;4236;54.504;9.588;2023-09-30T04:53:34;109.90;;;105.40;;
8397;SDS011;4236;54.504;9.588;2023-09-30T04:56:02;115.83;;;110.63;;
8397;SDS011;4236;54.504;9.588;2023-09-30T04:58:30;121.93;;;117.00;;
8397;SDS011;4236;54.504;9.588;2023-09-30T05:00:58;118.03;;;113.37;;
8397;SDS011;4236;54.504;9.588;2023-09-30T05:03:26;119.90;;;114.80;;
8397;SDS011;4236;54.504;9.588;2023-09-30T05:05:54;116.47;;;111.47;;
8397;SDS011;4236;54.504;9.588;2023-09-30T05:08:24;121.20;;;115.30;;
8397;SDS011;4236;54.504;9.588;2023-09-30T05:10:52;115.73;;;110.90;;
8397;SDS011;4236;54.504;9.588;2023-09-30T05:13:21;117.50;;;112.00;;
8397;SDS011;4236;54.504;9.588;2023-09-30T05:15:50;118.33;;;113.20;;
8397;SDS011;4236;54.504;9.588;2023-09-30T05:18:18;115.57;;;110.67;;
8397;SDS011;4236;54.504;9.588;2023-09-30T05:20:46;114.00;;;109.60;;
8397;SDS011;4236;54.504;9.588;2023-09-30T05:23:15;116.07;;;111.40;;
8397;SDS011;4236;54.504;9.588;2023-09-30T05:25:46;113.00;;;108.57;;
8397;SDS011;4236;54.504;9.588;2023-09-30T05:28:14;112.60;;;107.80;;
8397;SDS011;4236;54.504;9.588;2023-09-30T05:30:41;113.83;;;108.53;;
8397;SDS011;4236;54.504;9.588;2023-09-30T05:33:10;111.93;;;107.20;;
8397;SDS011;4236;54.504;9.588;2023-09-30T05:35:40;109.43;;;105.33;;
8397;SDS011;4236;54.504;9.588;2023-09-30T05:38:08;115.13;;;110.03;;
8397;SDS011;4236;54.504;9.588;2023-09-30T05:40:36;108.30;;;103.80;;
8397;SDS011;4236;54.504;9.588;2023-09-30T05:43:06;110.57;;;105.87;;
8397;SDS011;4236;54.504;9.588;2023-09-30T05:45:34;108.80;;;103.97;;
8397;SDS011;4236;54.504;9.588;2023-09-30T05:48:02;112.13;;;106.73;;
8397;SDS011;4236;54.504;9.588;2023-09-30T05:50:32;110.93;;;106.50;;
8397;SDS011;4236;54.504;9.588;2023-09-30T05:53:03;105.60;;;100.80;;
8397;SDS011;4236;54.504;9.588;2023-09-30T05:55:31;105.63;;;101.30;;
8397;SDS011;4236;54.504;9.588;2023-09-30T05:57:59;100.70;;;96.13;;
8397;SDS011;4236;54.504;9.588;2023-09-30T06:00:29;99.90;;;94.90;;
8397;SDS011;4236;54.504;9.588;2023-09-30T06:03:00;97.27;;;92.70;;
8397;SDS011;4236;54.504;9.588;2023-09-30T06:05:28;92.40;;;88.40;;
8397;SDS011;4236;54.504;9.588;2023-09-30T06:07:58;95.63;;;91.10;;
8397;SDS011;4236;54.504;9.588;2023-09-30T06:10:29;91.43;;;87.30;;
8397;SDS011;4236;54.504;9.588;2023-09-30T06:12:57;89.97;;;85.93;;
8397;SDS011;4236;54.504;9.588;2023-09-30T06:15:26;95.20;;;91.43;;
8397;SDS011;4236;54.504;9.588;2023-09-30T06:17:56;86.63;;;82.13;;
8397;SDS011;4236;54.504;9.588;2023-09-30T06:20:26;85.70;;;81.50;;
8397;SDS011;4236;54.504;9.588;2023-09-30T06:22:57;91.97;;;87.67;;
8397;SDS011;4236;54.504;9.588;2023-09-30T06:25:24;83.93;;;80.03;;
8397;SDS011;4236;54.504;9.588;2023-09-30T06:27:54;81.53;;;77.93;;
8397;SDS011;4236;54.504;9.588;2023-09-30T06:30:22;83.63;;;79.93;;
8397;SDS011;4236;54.504;9.588;2023-09-30T06:32:57;80.23;;;76.40;;
8397;SDS011;4236;54.504;9.588;2023-09-30T06:35:27;81.00;;;77.00;;
8397;SDS011;4236;54.504;9.588;2023-09-30T06:37:56;77.90;;;74.30;;
8397;SDS011;4236;54.504;9.588;2023-09-30T06:40:24;74.47;;;71.00;;
8397;SDS011;4236;54.504;9.588;2023-09-30T06:42:52;75.67;;;71.70;;
8397;SDS011;4236;54.504;9.588;2023-09-30T06:45:19;68.23;;;64.60;;
8397;SDS011;4236;54.504;9.588;2023-09-30T06:47:49;65.53;;;62.33;;
8397;SDS011;4236;54.504;9.588;2023-09-30T06:50:18;60.23;;;56.60;;
8397;SDS011;4236;54.504;9.588;2023-09-30T06:52:48;59.63;;;55.90;;
8397;SDS011;4236;54.504;9.588;2023-09-30T06:55:16;64.93;;;61.70;;
8397;SDS011;4236;54.504;9.588;2023-09-30T06:57:44;72.93;;;69.27;;
8397;SDS011;4236;54.504;9.588;2023-09-30T07:00:13;65.57;;;62.63;;
8397;SDS011;4236;54.504;9.588;2023-09-30T07:02:42;63.43;;;60.27;;
8397;SDS011;4236;54.504;9.588;2023-09-30T07:05:11;66.73;;;63.20;;
8397;SDS011;4236;54.504;9.588;2023-09-30T07:07:41;63.20;;;60.23;;
8397;SDS011;4236;54.504;9.588;2023-09-30T07:10:10;61.10;;;58.20;;
8397;SDS011;4236;54.504;9.588;2023-09-30T07:12:38;58.57;;;55.47;;
8397;SDS011;4236;54.504;9.588;2023-09-30T07:15:07;53.73;;;50.93;;
8397;SDS011;4236;54.504;9.588;2023-09-30T07:17:35;52.03;;;49.40;;
8397;SDS011;4236;54.504;9.588;2023-09-30T07:20:04;59.63;;;56.60;;
8397;SDS011;4236;54.504;9.588;2023-09-30T07:22:33;73.10;;;69.40;;
8397;SDS011;4236;54.504;9.588;2023-09-30T07:25:22;60.17;;;56.97;;
8397;SDS011;4236;54.504;9.588;2023-09-30T07:27:50;60.53;;;57.83;;
8397;SDS011;4236;54.504;9.588;2023-09-30T07:30:18;62.23;;;59.43;;
8397;SDS011;4236;54.504;9.588;2023-09-30T07:32:46;59.00;;;55.67;;
8397;SDS011;4236;54.504;9.588;2023-09-30T07:35:14;58.03;;;55.23;;
8397;SDS011;4236;54.504;9.588;2023-09-30T07:37:42;66.83;;;63.20;;
8397;SDS011;4236;54.504;9.588;2023-09-30T07:40:11;62.87;;;59.70;;
8397;SDS011;4236;54.504;9.588;2023-09-30T07:42:40;59.53;;;56.80;;
8397;SDS011;4236;54.504;9.588;2023-09-30T07:45:08;65.10;;;61.70;;
8397;SDS011;4236;54.504;9.588;2023-09-30T07:47:37;63.03;;;59.70;;
8397;SDS011;4236;54.504;9.588;2023-09-30T07:50:05;59.23;;;55.67;;
8397;SDS011;4236;54.504;9.588;2023-09-30T07:52:36;64.93;;;61.43;;
8397;SDS011;4236;54.504;9.588;2023-09-30T07:55:06;54.57;;;51.47;;
8397;SDS011;4236;54.504;9.588;2023-09-30T07:57:34;59.30;;;56.00;;
8397;SDS011;4236;54.504;9.588;2023-09-30T08:00:05;54.87;;;52.03;;
8397;SDS011;4236;54.504;9.588;2023-09-30T08:02:36;54.40;;;51.67;;
8397;SDS011;4236;54.504;9.588;2023-09-30T08:05:05;49.70;;;47.67;;
8397;SDS011;4236;54.504;9.588;2023-09-30T08:07:33;46.77;;;44.20;;
8397;SDS011;4236;54.504;9.588;2023-09-30T08:10:01;50.90;;;48.33;;
8397;SDS011;4236;54.504;9.588;2023-09-30T08:12:31;47.30;;;44.83;;
8397;SDS011;4236;54.504;9.588;2023-09-30T08:14:59;45.50;;;43.13;;
8397;SDS011;4236;54.504;9.588;2023-09-30T08:17:29;40.40;;;37.63;;
8397;SDS011;4236;54.504;9.588;2023-09-30T08:19:57;40.50;;;38.20;;
8397;SDS011;4236;54.504;9.588;2023-09-30T08:22:25;40.40;;;37.90;;
8397;SDS011;4236;54.504;9.588;2023-09-30T08:24:54;40.50;;;38.50;;
8397;SDS011;4236;54.504;9.588;2023-09-30T08:27:22;40.50;;;38.40;;
8397;SDS011;4236;54.504;9.588;2023-09-30T08:29:51;43.07;;;40.47;;
8397;SDS011;4236;54.504;9.588;2023-09-30T08:32:19;39.50;;;37.30;;
8397;SDS011;4236;54.504;9.588;2023-09-30T08:34:48;39.27;;;37.07;;
8397;SDS011;4236;54.504;9.588;2023-09-30T08:37:16;38.73;;;36.30;;
8397;SDS011;4236;54.504;9.588;2023-09-30T08:39:44;39.70;;;37.20;;
8397;SDS011;4236;54.504;9.588;2023-09-30T08:42:11;39.00;;;36.37;;
8397;SDS011;4236;54.504;9.588;2023-09-30T08:44:40;35.37;;;33.33;;
8397;SDS011;4236;54.504;9.588;2023-09-30T08:47:08;38.63;;;36.50;;
8397;SDS011;4236;54.504;9.588;2023-09-30T08:49:37;40.27;;;37.90;;
8397;SDS011;4236;54.504;9.588;2023-09-30T08:52:07;44.00;;;41.40;;
8397;SDS011;4236;54.504;9.588;2023-09-30T08:54:37;39.87;;;37.40;;
8397;SDS011;4236;54.504;9.588;2023-09-30T08:57:05;41.80;;;39.67;;
8397;SDS011;4236;54.504;9.588;2023-09-30T08:59:36;39.37;;;37.27;;
8397;SDS011;4236;54.504;9.588;2023-09-30T09:02:08;37.60;;;35.30;;
8397;SDS011;4236;54.504;9.588;2023-09-30T09:04:36;41.90;;;38.97;;
8397;SDS011;4236;54.504;9.588;2023-09-30T09:07:05;39.27;;;36.83;;
8397;SDS011;4236;54.504;9.588;2023-09-30T09:09:34;39.60;;;36.83;;
8397;SDS011;4236;54.504;9.588;2023-09-30T09:12:02;37.43;;;35.33;;
8397;SDS011;4236;54.504;9.588;2023-09-30T09:14:37;35.20;;;32.10;;
8397;SDS011;4236;54.504;9.588;2023-09-30T09:17:06;34.33;;;32.23;;
8397;SDS011;4236;54.504;9.588;2023-09-30T09:19:35;35.53;;;32.83;;
8397;SDS011;4236;54.504;9.588;2023-09-30T09:22:03;34.37;;;31.70;;
8397;SDS011;4236;54.504;9.588;2023-09-30T09:24:35;31.67;;;29.90;;
8397;SDS011;4236;54.504;9.588;2023-09-30T09:27:05;32.10;;;30.03;;
8397;SDS011;4236;54.504;9.588;2023-09-30T09:29:34;32.10;;;30.30;;
8397;SDS011;4236;54.504;9.588;2023-09-30T09:32:09;26.77;;;25.07;;
8397;SDS011;4236;54.504;9.588;2023-09-30T09:34:38;26.40;;;24.90;;
8397;SDS011;4236;54.504;9.588;2023-09-30T09:37:12;24.20;;;22.60;;
8397;SDS011;4236;54.504;9.588;2023-09-30T09:39:49;25.03;;;22.90;;
8397;SDS011;4236;54.504;9.588;2023-09-30T09:42:25;22.77;;;21.30;;
8397;SDS011;4236;54.504;9.588;2023-09-30T09:44:54;21.93;;;20.50;;
8397;SDS011;4236;54.504;9.588;2023-09-30T09:47:24;21.33;;;19.83;;
8397;SDS011;4236;54.504;9.588;2023-09-30T09:49:52;19.33;;;17.87;;
8397;SDS011;4236;54.504;9.588;2023-09-30T09:52:20;19.67;;;18.27;;
8397;SDS011;4236;54.504;9.588;2023-09-30T09:54:51;20.37;;;19.00;;
8397;SDS011;4236;54.504;9.588;2023-09-30T09:57:19;20.67;;;19.07;;
8397;SDS011;4236;54.504;9.588;2023-09-30T09:59:47;21.07;;;19.47;;
8397;SDS011;4236;54.504;9.588;2023-09-30T10:02:15;18.60;;;17.30;;
8397;SDS011;4236;54.504;9.588;2023-09-30T10:04:44;18.07;;;16.70;;
8397;SDS011;4236;54.504;9.588;2023-09-30T10:07:14;19.73;;;15.23;;
8397;SDS011;4236;54.504;9.588;2023-09-30T10:09:48;17.07;;;15.37;;
8397;SDS011;4236;54.504;9.588;2023-09-30T10:12:19;16.03;;;14.73;;
8397;SDS011;4236;54.504;9.588;2023-09-30T10:14:47;16.53;;;15.10;;
8397;SDS011;4236;54.504;9.588;2023-09-30T10:17:15;15.77;;;14.43;;
8397;SDS011;4236;54.504;9.588;2023-09-30T10:22:33;15.03;;;13.40;;
8397;SDS011;4236;54.504;9.588;2023-09-30T10:25:32;19.00;;;15.20;;
8397;SDS011;4236;54.504;9.588;2023-09-30T10:28:11;16.77;;;15.00;;
8397;SDS011;4236;54.504;9.588;2023-09-30T10:31:09;16.57;;;14.83;;
8397;SDS011;4236;54.504;9.588;2023-09-30T10:36:41;15.23;;;13.83;;
8397;SDS011;4236;54.504;9.588;2023-09-30T10:39:10;15.47;;;14.03;;
8397;SDS011;4236;54.504;9.588;2023-09-30T10:41:49;15.63;;;14.13;;
8397;SDS011;4236;54.504;9.588;2023-09-30T10:44:31;13.90;;;12.50;;
8397;SDS011;4236;54.504;9.588;2023-09-30T10:47:00;15.90;;;13.47;;
8397;SDS011;4236;54.504;9.588;2023-09-30T10:49:48;15.17;;;12.63;;
8397;SDS011;4236;54.504;9.588;2023-09-30T10:52:21;14.13;;;12.90;;
8397;SDS011;4236;54.504;9.588;2023-09-30T10:54:49;13.00;;;11.63;;
8397;SDS011;4236;54.504;9.588;2023-09-30T10:57:27;12.17;;;11.27;;
8397;SDS011;4236;54.504;9.588;2023-09-30T11:00:08;12.33;;;11.30;;
8397;SDS011;4236;54.504;9.588;2023-09-30T11:02:49;13.07;;;11.80;;
8397;SDS011;4236;54.504;9.588;2023-09-30T11:05:17;12.20;;;11.03;;
8397;SDS011;4236;54.504;9.588;2023-09-30T11:08:01;13.00;;;10.90;;
8397;SDS011;4236;54.504;9.588;2023-09-30T11:10:30;13.40;;;11.33;;
8397;SDS011;4236;54.504;9.588;2023-09-30T11:12:59;14.67;;;13.23;;
8397;SDS011;4236;54.504;9.588;2023-09-30T11:15:27;13.27;;;12.40;;
8397;SDS011;4236;54.504;9.588;2023-09-30T11:18:12;14.03;;;12.80;;
8397;SDS011;4236;54.504;9.588;2023-09-30T11:20:40;13.80;;;12.40;;
8397;SDS011;4236;54.504;9.588;2023-09-30T11:23:08;14.27;;;12.90;;
8397;SDS011;4236;54.504;9.588;2023-09-30T11:25:36;15.00;;;12.93;;
8397;SDS011;4236;54.504;9.588;2023-09-30T11:28:15;16.87;;;12.73;;
8397;SDS011;4236;54.504;9.588;2023-09-30T11:33:30;14.43;;;12.57;;
8397;SDS011;4236;54.504;9.588;2023-09-30T11:35:59;19.50;;;11.63;;
8397;SDS011;4236;54.504;9.588;2023-09-30T11:38:28;12.10;;;10.90;;
8397;SDS011;4236;54.504;9.588;2023-09-30T11:40:59;17.40;;;11.93;;
8397;SDS011;4236;54.504;9.588;2023-09-30T11:43:30;11.23;;;10.00;;
8397;SDS011;4236;54.504;9.588;2023-09-30T11:46:04;13.20;;;10.40;;
8397;SDS011;4236;54.504;9.588;2023-09-30T11:48:34;10.90;;;8.87;;
8397;SDS011;4236;54.504;9.588;2023-09-30T11:51:03;11.80;;;9.37;;
8397;SDS011;4236;54.504;9.588;2023-09-30T11:53:31;12.83;;;9.73;;
8397;SDS011;4236;54.504;9.588;2023-09-30T11:56:02;10.73;;;9.63;;
8397;SDS011;4236;54.504;9.588;2023-09-30T11:58:32;11.37;;;9.80;;
8397;SDS011;4236;54.504;9.588;2023-09-30T12:01:00;10.30;;;9.37;;
8397;SDS011;4236;54.504;9.588;2023-09-30T12:03:28;12.93;;;11.60;;
8397;SDS011;4236;54.504;9.588;2023-09-30T12:05:57;12.33;;;11.00;;
8397;SDS011;4236;54.504;9.588;2023-09-30T12:08:26;10.60;;;9.77;;
8397;SDS011;4236;54.504;9.588;2023-09-30T12:10:55;11.73;;;9.53;;
8397;SDS011;4236;54.504;9.588;2023-09-30T12:13:22;12.23;;;10.17;;
8397;SDS011;4236;54.504;9.588;2023-09-30T12:15:51;11.20;;;10.10;;
8397;SDS011;4236;54.504;9.588;2023-09-30T12:18:19;11.87;;;10.70;;
8397;SDS011;4236;54.504;9.588;2023-09-30T12:20:50;15.57;;;11.03;;
8397;SDS011;4236;54.504;9.588;2023-09-30T12:23:18;10.20;;;9.27;;
8397;SDS011;4236;54.504;9.588;2023-09-30T12:25:46;11.23;;;9.93;;
8397;SDS011;4236;54.504;9.588;2023-09-30T12:28:32;16.00;;;9.67;;
8397;SDS011;4236;54.504;9.588;2023-09-30T12:31:01;10.73;;;9.63;;
8397;SDS011;4236;54.504;9.588;2023-09-30T12:33:31;12.60;;;9.23;;
8397;SDS011;4236;54.504;9.588;2023-09-30T12:35:59;9.43;;;8.53;;
8397;SDS011;4236;54.504;9.588;2023-09-30T12:38:27;11.30;;;10.40;;
8397;SDS011;4236;54.504;9.588;2023-09-30T12:40:55;16.33;;;10.27;;
8397;SDS011;4236;54.504;9.588;2023-09-30T12:43:23;11.63;;;9.00;;
8397;SDS011;4236;54.504;9.588;2023-09-30T12:45:51;8.83;;;8.10;;
8397;SDS011;4236;54.504;9.588;2023-09-30T12:48:20;8.93;;;8.07;;
8397;SDS011;4236;54.504;9.588;2023-09-30T12:50:48;10.93;;;9.80;;
8397;SDS011;4236;54.504;9.588;2023-09-30T12:53:15;11.23;;;10.23;;
8397;SDS011;4236;54.504;9.588;2023-09-30T12:55:43;11.83;;;10.53;;
8397;SDS011;4236;54.504;9.588;2023-09-30T12:58:11;10.03;;;8.60;;
8397;SDS011;4236;54.504;9.588;2023-09-30T13:00:39;9.70;;;8.83;;
8397;SDS011;4236;54.504;9.588;2023-09-30T13:03:06;9.83;;;8.50;;
8397;SDS011;4236;54.504;9.588;2023-09-30T13:05:35;10.70;;;8.63;;
8397;SDS011;4236;54.504;9.588;2023-09-30T13:08:03;9.10;;;8.13;;
8397;SDS011;4236;54.504;9.588;2023-09-30T13:10:31;9.07;;;8.10;;
8397;SDS011;4236;54.504;9.588;2023-09-30T13:12:59;9.23;;;7.63;;
8397;SDS011;4236;54.504;9.588;2023-09-30T13:15:27;12.20;;;9.80;;
8397;SDS011;4236;54.504;9.588;2023-09-30T13:17:55;11.27;;;8.27;;
8397;SDS011;4236;54.504;9.588;2023-09-30T13:20:23;9.63;;;8.63;;
8397;SDS011;4236;54.504;9.588;2023-09-30T13:22:52;11.60;;;9.40;;
8397;SDS011;4236;54.504;9.588;2023-09-30T13:25:20;11.07;;;8.93;;
8397;SDS011;4236;54.504;9.588;2023-09-30T13:27:48;8.83;;;8.13;;
8397;SDS011;4236;54.504;9.588;2023-09-30T13:30:16;9.80;;;8.30;;
8397;SDS011;4236;54.504;9.588;2023-09-30T13:32:44;10.80;;;8.40;;
8397;SDS011;4236;54.504;9.588;2023-09-30T13:35:12;11.90;;;7.87;;
8397;SDS011;4236;54.504;9.588;2023-09-30T13:37:41;9.57;;;8.73;;
8397;SDS011;4236;54.504;9.588;2023-09-30T13:40:10;8.60;;;7.73;;
8397;SDS011;4236;54.504;9.588;2023-09-30T13:42:39;12.63;;;8.70;;
8397;SDS011;4236;54.504;9.588;2023-09-30T13:45:08;10.10;;;7.37;;
8397;SDS011;4236;54.504;9.588;2023-09-30T13:47:37;10.83;;;7.83;;
8397;SDS011;4236;54.504;9.588;2023-09-30T13:50:05;12.87;;;9.10;;
8397;SDS011;4236;54.504;9.588;2023-09-30T13:52:34;8.20;;;7.50;;
8397;SDS011;4236;54.504;9.588;2023-09-30T13:55:02;10.20;;;7.57;;
8397;SDS011;4236;54.504;9.588;2023-09-30T13:57:32;10.13;;;8.60;;
8397;SDS011;4236;54.504;9.588;2023-09-30T14:00:01;10.93;;;8.50;;
8397;SDS011;4236;54.504;9.588;2023-09-30T14:02:30;10.37;;;8.17;;
8397;SDS011;4236;54.504;9.588;2023-09-30T14:04:58;9.37;;;8.47;;
8397;SDS011;4236;54.504;9.588;2023-09-30T14:07:26;9.43;;;8.53;;
8397;SDS011;4236;54.504;9.588;2023-09-30T14:09:54;11.07;;;7.90;;
8397;SDS011;4236;54.504;9.588;2023-09-30T14:12:22;9.60;;;8.90;;
8397;SDS011;4236;54.504;9.588;2023-09-30T14:14:51;10.57;;;8.47;;
8397;SDS011;4236;54.504;9.588;2023-09-30T14:17:18;15.47;;;8.47;;
8397;SDS011;4236;54.504;9.588;2023-09-30T14:19:46;10.53;;;7.30;;
8397;SDS011;4236;54.504;9.588;2023-09-30T14:22:14;9.93;;;7.67;;
8397;SDS011;4236;54.504;9.588;2023-09-30T14:24:41;7.70;;;6.90;;
8397;SDS011;4236;54.504;9.588;2023-09-30T14:27:09;13.57;;;7.17;;
8397;SDS011;4236;54.504;9.588;2023-09-30T14:29:37;8.43;;;7.53;;
8397;SDS011;4236;54.504;9.588;2023-09-30T14:32:06;8.17;;;7.40;;
8397;SDS011;4236;54.504;9.588;2023-09-30T14:34:34;7.97;;;6.97;;
8397;SDS011;4236;54.504;9.588;2023-09-30T14:37:02;9.43;;;8.53;;
8397;SDS011;4236;54.504;9.588;2023-09-30T14:39:29;8.30;;;7.60;;
8397;SDS011;4236;54.504;9.588;2023-09-30T14:41:57;8.97;;;8.10;;
8397;SDS011;4236;54.504;9.588;2023-09-30T14:44:25;9.37;;;8.00;;
8397;SDS011;4236;54.504;9.588;2023-09-30T14:46:52;9.60;;;8.20;;
8397;SDS011;4236;54.504;9.588;2023-09-30T14:49:23;8.53;;;7.67;;
8397;SDS011;4236;54.504;9.588;2023-09-30T14:51:51;11.90;;;7.70;;
8397;SDS011;4236;54.504;9.588;2023-09-30T14:54:19;8.23;;;7.53;;
8397;SDS011;4236;54.504;9.588;2023-09-30T14:56:47;7.80;;;7.07;;
8397;SDS011;4236;54.504;9.588;2023-09-30T14:59:15;11.27;;;7.63;;
8397;SDS011;4236;54.504;9.588;2023-09-30T15:01:43;9.70;;;6.90;;
8397;SDS011;4236;54.504;9.588;2023-09-30T15:04:11;7.30;;;6.30;;
8397;SDS011;4236;54.504;9.588;2023-09-30T15:06:40;13.53;;;7.43;;
8397;SDS011;4236;54.504;9.588;2023-09-30T15:09:08;11.40;;;7.30;;